Time;durP1;ratioP1;P1;durP2;ratioP2;P2;SDS_P1;SDS_P2;PMS_P1;PMS_P2;Temp;Humidity;BMP_temperature;BMP_pressure;BME280_temperature;BME280_humidity;BME280_pressure;Samples;Min_cycle;Max_cycle;Signal;HPM_P1;HPM_P2
2021/05/31 00:02:12;;;;;;;0.47;0.47;;;;;;;18.06;56.59;102602.56;5039074;28;20036;-79
2021/05/31 00:04:39;;;;;;;0.10;0.10;;;;;;;18.03;56.48;102601.75;5026652;28;20033;-80
2021/05/31 00:07:11;;;;;;;0.10;0.10;;;;;;;18.05;56.04;102600.78;5035293;28;20024;-79
2021/05/31 00:09:40;;;;;;;1.35;1.25;;;;;;;18.00;56.69;102602.69;5041822;28;20029;-79
2021/05/31 00:12:10;;;;;;;0.00;0.00;;;;;;;17.96;56.69;102590.28;5047075;28;20051;-79
2021/05/31 00:14:38;;;;;;;0.00;0.00;;;;;;;17.91;56.29;102593.03;5048135;28;20476;-79
2021/05/31 00:17:05;;;;;;;0.10;0.10;;;;;;;17.88;56.79;102589.53;5028281;28;20022;-79
2021/05/31 00:19:32;;;;;;;0.00;0.00;;;;;;;17.86;56.91;102586.03;5031411;28;20086;-79
2021/05/31 00:21:58;;;;;;;0.10;0.10;;;;;;;17.83;56.57;102584.31;5030482;28;20034;-80
2021/05/31 00:24:25;;;;;;;0.08;0.08;;;;;;;17.82;56.48;102587.00;5030714;28;20033;-80
2021/05/31 00:26:53;;;;;;;0.10;0.10;;;;;;;17.81;56.20;102593.25;5030981;28;20090;-79
2021/05/31 00:29:23;;;;;;;0.10;0.10;;;;;;;17.76;56.70;102583.53;5031076;27;20399;-79
2021/05/31 00:31:51;;;;;;;0.00;0.00;;;;;;;17.74;56.50;102585.34;5028531;28;20116;-80
2021/05/31 00:34:18;;;;;;;0.00;0.00;;;;;;;17.69;56.63;102583.72;5028913;28;20052;-79
2021/05/31 00:36:44;;;;;;;0.10;0.10;;;;;;;17.63;56.49;102588.28;5027649;28;20122;-80
2021/05/31 00:39:11;;;;;;;0.05;0.05;;;;;;;17.61;56.64;102583.88;5029226;27;20033;-79
2021/05/31 00:41:38;;;;;;;0.15;0.15;;;;;;;17.55;56.84;102584.88;5028714;28;20491;-77
2021/05/31 00:44:05;;;;;;;0.00;0.00;;;;;;;17.54;56.78;102588.47;5030958;28;20116;-78
2021/05/31 00:46:31;;;;;;;0.00;0.00;;;;;;;17.49;57.41;102584.16;5030848;28;20467;-78
2021/05/31 00:48:58;;;;;;;0.10;0.10;;;;;;;17.45;56.40;102581.53;5030205;28;20030;-78
2021/05/31 00:51:27;;;;;;;2.72;0.65;;;;;;;17.40;57.05;102580.75;5030268;28;20117;-78
2021/05/31 00:53:54;;;;;;;0.35;0.35;;;;;;;17.34;56.94;102575.50;5029818;28;20782;-79
2021/05/31 00:56:21;;;;;;;0.00;0.00;;;;;;;17.32;56.76;102582.72;5031207;28;20030;-78
2021/05/31 00:58:47;;;;;;;0.00;0.00;;;;;;;17.28;56.83;102576.53;5029910;28;20499;-78
2021/05/31 01:01:15;;;;;;;0.00;0.00;;;;;;;17.23;57.29;102588.25;5030944;28;20037;-78
2021/05/31 01:03:42;;;;;;;0.10;0.10;;;;;;;17.20;57.06;102573.13;5030018;28;20085;-79
2021/05/31 01:06:11;;;;;;;0.10;0.10;;;;;;;17.14;56.92;102579.47;5025578;28;20029;-79
2021/05/31 01:14:50;;;;;;;0.00;0.00;;;;;;;17.13;57.23;102577.72;5071428;27;20419;-79
2021/05/31 01:17:26;;;;;;;0.10;0.10;;;;;;;17.07;57.55;102579.63;5065562;28;20068;-78
2021/05/31 01:22:41;;;;;;;0.10;0.10;;;;;;;16.97;57.10;102582.50;5069167;28;20504;-79
2021/05/31 01:25:30;;;;;;;0.10;0.10;;;;;;;16.97;57.32;102582.50;5055636;28;20033;-78
2021/05/31 01:28:25;;;;;;;0.00;0.00;;;;;;;16.93;57.31;102579.91;5050133;28;20084;-79
2021/05/31 01:30:53;;;;;;;0.08;0.08;;;;;;;16.78;57.54;102579.22;5050265;28;20053;-79
2021/05/31 01:33:24;;;;;;;0.00;0.00;;;;;;;16.80;57.63;102580.09;5050541;28;20032;-79
2021/05/31 01:35:52;;;;;;;0.05;0.05;;;;;;;16.75;57.75;102568.59;5050475;28;20495;-79
2021/05/31 01:38:20;;;;;;;0.00;0.00;;;;;;;16.67;57.48;102575.88;5049820;28;20021;-79
2021/05/31 01:40:48;;;;;;;0.10;0.10;;;;;;;16.63;57.70;102572.34;5050608;28;20401;-79
2021/05/31 01:43:17;;;;;;;0.00;0.00;;;;;;;16.62;57.82;102569.72;5054375;28;20021;-79
2021/05/31 01:45:45;;;;;;;0.10;0.10;;;;;;;16.60;57.94;102566.22;5083880;28;20032;-79
2021/05/31 01:48:13;;;;;;;0.20;0.20;;;;;;;16.56;57.84;102564.47;5053266;28;20384;-79
2021/05/31 01:50:41;;;;;;;0.00;0.00;;;;;;;16.56;57.50;102565.38;5049865;28;20431;-79
2021/05/31 01:53:09;;;;;;;0.00;0.00;;;;;;;16.52;58.17;102568.13;5049836;28;20428;-79
2021/05/31 01:55:37;;;;;;;0.00;0.00;;;;;;;16.52;57.96;102578.81;5050055;28;20022;-79
2021/05/31 01:58:04;;;;;;;0.03;0.03;;;;;;;16.49;58.17;102569.94;5050020;28;20029;-78
2021/05/31 02:00:31;;;;;;;0.00;0.00;;;;;;;16.45;58.38;102562.88;5060984;28;20108;-79
2021/05/31 02:02:57;;;;;;;1.15;0.68;;;;;;;16.47;58.16;102566.41;5049699;28;20396;-79
2021/05/31 02:05:24;;;;;;;0.00;0.00;;;;;;;16.53;58.26;102567.22;5050363;28;20052;-79
2021/05/31 02:07:52;;;;;;;0.08;0.08;;;;;;;16.56;58.44;102564.47;5057619;28;20060;-79
2021/05/31 02:10:18;;;;;;;0.65;0.60;;;;;;;16.50;58.06;102566.34;5052414;28;20025;-78
2021/05/31 02:20:55;;;;;;;0.13;0.13;;;;;;;16.42;58.18;102562.03;5069065;28;20482;-78
2021/05/31 02:23:22;;;;;;;0.03;0.03;;;;;;;16.35;58.49;102561.28;5065542;28;20040;-78
2021/05/31 02:25:51;;;;;;;0.10;0.10;;;;;;;16.37;58.24;102559.44;5053000;28;20056;-79
2021/05/31 02:28:18;;;;;;;0.00;0.00;;;;;;;16.33;58.53;102555.94;5058650;28;20476;-79
2021/05/31 02:30:45;;;;;;;0.00;0.00;;;;;;;16.31;58.53;102556.84;5058594;28;20037;-78
2021/05/31 02:33:11;;;;;;;0.10;0.10;;;;;;;16.33;58.22;102555.06;5051052;28;20499;-78
2021/05/31 02:35:39;;;;;;;0.10;0.10;;;;;;;16.27;58.39;102553.34;5059264;28;20479;-78
2021/05/31 02:38:07;;;;;;;0.10;0.10;;;;;;;16.24;58.78;102560.56;5062036;28;20108;-79
2021/05/31 02:40:36;;;;;;;0.20;0.20;;;;;;;16.22;58.82;102554.34;5058094;28;20037;-78
2021/05/31 02:43:05;;;;;;;0.10;0.10;;;;;;;16.26;58.54;102558.72;5055394;28;20024;-78
2021/05/31 02:45:33;;;;;;;0.47;0.47;;;;;;;16.25;58.58;102554.28;5050316;28;20029;-79
2021/05/31 02:47:59;;;;;;;0.00;0.00;;;;;;;16.20;58.40;102562.41;5050076;28;20030;-79
2021/05/31 02:50:28;;;;;;;0.08;0.08;;;;;;;16.18;58.54;102567.75;5059118;28;20044;-79
2021/05/31 02:52:56;;;;;;;0.10;0.10;;;;;;;16.14;58.83;102566.06;5047415;28;20025;-79
2021/05/31 02:55:25;;;;;;;0.43;0.32;;;;;;;16.13;58.62;102566.94;5051903;28;20040;-79
2021/05/31 02:57:51;;;;;;;0.05;0.05;;;;;;;16.10;58.56;102561.66;5061641;28;20086;-79
2021/05/31 03:00:21;;;;;;;0.17;0.17;;;;;;;16.10;58.63;102556.31;5062144;28;20033;-79
2021/05/31 03:02:48;;;;;;;0.00;0.00;;;;;;;16.07;58.34;102566.19;5052910;28;20111;-80
2021/05/31 03:05:19;;;;;;;0.65;0.65;;;;;;;16.06;58.55;102559.06;5047631;28;20022;-79
2021/05/31 03:07:46;;;;;;;0.00;0.00;;;;;;;16.02;58.49;102563.56;5045068;28;20104;-79
2021/05/31 03:10:15;;;;;;;0.05;0.05;;;;;;;16.01;58.67;102567.13;5050766;28;20064;-79
2021/05/31 03:12:42;;;;;;;0.30;0.30;;;;;;;15.97;59.08;102554.75;5061478;28;20476;-79
2021/05/31 03:15:11;;;;;;;9.32;0.82;;;;;;;15.93;59.06;102555.69;5060222;28;20103;-79
2021/05/31 03:17:37;;;;;;;0.25;0.25;;;;;;;15.88;59.19;102552.22;5052538;28;20037;-79
2021/05/31 03:20:06;;;;;;;0.00;0.00;;;;;;;15.89;58.87;102561.97;5049138;28;20388;-79
2021/05/31 03:22:33;;;;;;;0.00;0.00;;;;;;;15.87;59.43;102553.13;5060979;28;20387;-78
2021/05/31 03:24:59;;;;;;;0.08;0.08;;;;;;;15.85;59.06;102559.38;5062031;28;20021;-79
2021/05/31 03:27:25;;;;;;;1.13;1.13;;;;;;;15.83;59.39;102557.63;5063387;28;20029;-79
2021/05/31 03:29:52;;;;;;;0.00;0.00;;;;;;;15.79;59.06;102553.19;5054876;28;20035;-79
2021/05/31 03:32:18;;;;;;;2.92;0.88;;;;;;;15.82;59.47;102563.88;5038727;28;20033;-79
2021/05/31 03:34:44;;;;;;;0.10;0.10;;;;;;;15.80;59.42;102558.53;5038927;28;20033;-79
2021/05/31 03:37:11;;;;;;;0.05;0.05;;;;;;;15.80;58.95;102558.53;5051553;28;20029;-79
2021/05/31 03:39:37;;;;;;;0.00;0.00;;;;;;;15.79;59.34;102562.09;5047001;28;20476;-79
2021/05/31 03:42:04;;;;;;;0.05;0.05;;;;;;;15.79;59.27;102561.22;5040495;28;20075;-79
2021/05/31 03:44:31;;;;;;;0.10;0.10;;;;;;;15.77;59.37;102555.88;5038657;28;20086;-79
2021/05/31 03:46:57;;;;;;;0.10;0.10;;;;;;;15.75;59.72;102555.03;5038371;28;20541;-79
2021/05/31 03:49:23;;;;;;;0.10;0.10;;;;;;;15.75;59.32;102557.72;5050585;28;20110;-79
2021/05/31 03:51:50;;;;;;;0.10;0.10;;;;;;;15.70;59.60;102562.19;5043670;28;20071;-79
2021/05/31 03:54:16;;;;;;;0.03;0.03;;;;;;;15.69;59.71;102555.13;5039506;28;20497;-79
2021/05/31 03:56:42;;;;;;;0.10;0.10;;;;;;;15.68;59.52;102553.34;5036812;28;20492;-79
2021/05/31 03:59:09;;;;;;;0.10;0.10;;;;;;;15.66;59.85;102555.16;5040683;28;20068;-79
2021/05/31 04:01:36;;;;;;;0.10;0.10;;;;;;;15.67;59.63;102551.56;5048566;28;20021;-79
2021/05/31 04:04:02;;;;;;;0.10;0.10;;;;;;;15.67;59.71;102551.56;5041253;28;20026;-79
2021/05/31 04:06:55;;;;;;;0.10;0.10;;;;;;;15.70;59.11;102556.84;5039213;28;20033;-79
2021/05/31 04:12:02;;;;;;;0.10;0.10;;;;;;;15.72;59.45;102555.06;5048018;28;20038;-79
2021/05/31 04:14:28;;;;;;;0.00;0.00;;;;;;;15.72;59.63;102556.88;5042487;28;20108;-78
2021/05/31 04:16:55;;;;;;;0.10;0.10;;;;;;;15.71;59.72;102561.31;5042331;28;20060;-79
2021/05/31 04:19:25;;;;;;;0.00;0.00;;;;;;;15.69;59.98;102558.66;5034224;28;20064;-79
2021/05/31 04:21:53;;;;;;;0.00;0.00;;;;;;;15.67;59.83;102556.91;5047073;28;20033;-79
2021/05/31 04:24:19;;;;;;;0.00;0.00;;;;;;;15.68;59.90;102554.22;5039185;28;20056;-79
2021/05/31 04:26:47;;;;;;;0.00;0.00;;;;;;;15.69;59.83;102557.78;5048102;28;20446;-79
2021/05/31 04:29:14;;;;;;;0.10;0.10;;;;;;;15.72;59.67;102555.06;5040124;28;20496;-79
2021/05/31 04:31:41;;;;;;;0.10;0.10;;;;;;;15.74;59.85;102553.25;5038861;28;20030;-79
2021/05/31 04:34:10;;;;;;;0.20;0.20;;;;;;;15.76;59.57;102551.44;5036421;28;20025;-79
2021/05/31 04:36:36;;;;;;;0.40;0.40;;;;;;;15.78;59.69;102554.97;5048954;28;20014;-79
2021/05/31 04:39:06;;;;;;;0.10;0.10;;;;;;;15.81;59.80;102557.63;5048659;28;20048;-79
2021/05/31 04:41:32;;;;;;;0.10;0.10;;;;;;;15.83;59.60;102553.16;5040951;28;20030;-79
2021/05/31 04:43:59;;;;;;;0.40;0.40;;;;;;;15.82;60.14;102556.72;5036459;28;20040;-79
2021/05/31 04:46:25;;;;;;;0.60;0.60;;;;;;;15.84;60.38;102552.25;5033885;28;20480;-80
2021/05/31 04:48:53;;;;;;;0.00;0.00;;;;;;;15.88;59.86;102547.75;5049102;28;20498;-80
2021/05/31 04:51:20;;;;;;;0.00;0.00;;;;;;;15.89;60.20;102546.84;5046771;28;20123;-80
2021/05/31 04:53:47;;;;;;;0.00;0.00;;;;;;;15.95;59.42;102548.53;5038702;28;20033;-80
2021/05/31 04:56:15;;;;;;;0.20;0.20;;;;;;;15.95;59.38;102544.06;5036641;28;20036;-80
2021/05/31 04:58:41;;;;;;;0.10;0.10;;;;;;;15.93;60.28;102547.69;5049024;28;20029;-79
2021/05/31 05:01:08;;;;;;;0.30;0.30;;;;;;;15.94;60.02;102544.97;5045733;28;20021;-79
2021/05/31 05:03:35;;;;;;;0.10;0.10;;;;;;;15.97;59.96;102550.25;5042276;28;20392;-79
2021/05/31 05:06:01;;;;;;;0.10;0.10;;;;;;;16.00;59.87;102544.00;5037839;28;20033;-79
2021/05/31 05:08:27;;;;;;;0.10;0.10;;;;;;;15.94;60.88;102544.09;5034865;28;20026;-79
2021/05/31 05:10:54;;;;;;;0.00;0.00;;;;;;;16.01;60.68;102540.41;5043055;28;20028;-79
2021/05/31 05:13:20;;;;;;;0.05;0.05;;;;;;;16.06;59.93;102543.88;5037222;28;20056;-80
2021/05/31 05:15:46;;;;;;;0.00;0.00;;;;;;;16.12;59.98;102543.78;5031709;28;20028;-77
2021/05/31 05:18:12;;;;;;;0.70;0.70;;;;;;;16.09;60.67;102538.50;5029594;28;20420;-80
2021/05/31 05:20:38;;;;;;;0.00;0.00;;;;;;;16.17;59.81;102541.06;5021875;28;20041;-79
2021/05/31 05:23:05;;;;;;;0.63;0.63;;;;;;;16.18;60.26;102541.00;5029492;28;20076;-79
2021/05/31 05:25:31;;;;;;;0.82;0.82;;;;;;;16.16;59.83;102542.84;5025108;28;20034;-79
2021/05/31 05:27:57;;;;;;;0.10;0.10;;;;;;;16.18;60.51;102550.84;5038032;28;20037;-79
2021/05/31 05:30:28;;;;;;;0.00;0.00;;;;;;;16.27;60.08;102547.13;5036171;28;20038;-80
2021/05/31 05:32:59;;;;;;;0.38;0.28;;;;;;;16.32;60.19;102545.25;5033510;28;20029;-80
2021/05/31 05:41:13;;;;;;;0.35;0.35;;;;;;;16.46;60.25;102543.25;5074432;28;20134;-81
2021/05/31 05:46:32;;;;;;;0.00;0.00;;;;;;;16.56;60.10;102546.63;5052275;28;20037;-79
2021/05/31 05:48:58;;;;;;;0.08;0.08;;;;;;;16.62;59.61;102537.59;5058103;28;20388;-77
2021/05/31 05:51:24;;;;;;;0.20;0.20;;;;;;;16.60;60.42;102536.78;5075038;28;20104;-80
2021/05/31 05:53:51;;;;;;;0.00;0.00;;;;;;;16.66;60.22;102531.31;5069054;28;20033;-80
2021/05/31 05:56:21;;;;;;;0.00;0.00;;;;;;;16.77;60.67;102531.97;5059139;28;20123;-81
2021/05/31 05:58:50;;;;;;;0.00;0.00;;;;;;;16.86;60.13;102540.72;5059959;28;20047;-80
2021/05/31 06:01:17;;;;;;;1.02;1.02;;;;;;;16.77;60.61;102537.34;5052445;28;20033;-80
2021/05/31 06:03:44;;;;;;;0.20;0.20;;;;;;;16.89;60.31;102532.66;5052183;28;20136;-80
2021/05/31 06:06:10;;;;;;;0.10;0.10;;;;;;;16.94;60.02;102534.34;5052855;28;20136;-80
2021/05/31 06:08:51;;;;;;;0.00;0.00;;;;;;;16.94;59.98;102529.00;5063220;28;20037;-79
2021/05/31 06:11:18;;;;;;;0.30;0.30;;;;;;;17.02;59.71;102531.50;5058518;28;20116;-82
2021/05/31 06:13:46;;;;;;;1.20;0.85;;;;;;;17.09;59.49;102532.28;5058417;28;20031;-80
2021/05/31 06:16:12;;;;;;;0.00;0.00;;;;;;;17.06;59.89;102533.22;5059039;28;20024;-81
2021/05/31 06:18:39;;;;;;;0.90;0.90;;;;;;;17.13;59.91;102537.56;5064165;28;20029;-80
2021/05/31 06:21:07;;;;;;;1.13;1.05;;;;;;;17.20;59.25;102540.09;5066670;28;20067;-80
2021/05/31 06:23:33;;;;;;;0.10;0.10;;;;;;;17.17;59.55;102534.78;5061799;28;20476;-81
2021/05/31 06:26:01;;;;;;;0.55;0.32;;;;;;;17.33;59.09;102535.38;5054693;28;20618;-81
2021/05/31 06:28:28;;;;;;;0.43;0.43;;;;;;;17.38;58.27;102523.63;5063495;28;20032;-81
2021/05/31 06:30:54;;;;;;;0.05;0.05;;;;;;;17.48;58.62;102528.78;5054022;28;20488;-81
2021/05/31 06:33:20;;;;;;;0.20;0.20;;;;;;;17.58;58.19;102523.19;5058056;28;20159;-81
2021/05/31 06:35:49;;;;;;;0.00;0.00;;;;;;;17.62;58.56;102524.88;5052968;28;20056;-81
2021/05/31 06:38:15;;;;;;;0.17;0.17;;;;;;;17.67;58.36;102516.75;5053966;28;20032;-80
2021/05/31 06:40:42;;;;;;;0.10;0.10;;;;;;;17.71;58.49;102522.91;5061808;28;20480;-81
2021/05/31 06:43:08;;;;;;;0.10;0.10;;;;;;;17.84;57.96;102510.09;5058967;28;20017;-81
2021/05/31 06:45:34;;;;;;;0.95;0.95;;;;;;;17.91;58.24;102517.06;5052423;28;20091;-81
2021/05/31 06:48:03;;;;;;;0.55;0.55;;;;;;;18.03;57.54;102522.19;5052243;28;20516;-80
2021/05/31 06:50:32;;;;;;;0.00;0.00;;;;;;;18.02;58.07;102520.41;5055064;28;20116;-82
2021/05/31 06:52:59;;;;;;;1.08;0.40;;;;;;;18.15;57.74;102520.97;5043127;28;20483;-79
2021/05/31 06:55:27;;;;;;;0.65;0.30;;;;;;;18.14;58.11;102523.72;5041462;28;20083;-81
2021/05/31 06:57:54;;;;;;;0.68;0.68;;;;;;;18.29;57.86;102523.31;5050403;28;20029;-82
2021/05/31 07:00:22;;;;;;;0.10;0.10;;;;;;;18.41;57.48;102517.63;5036081;28;20095;-83
2021/05/31 07:02:49;;;;;;;0.00;0.00;;;;;;;18.49;57.47;102520.13;5041654;28;20039;-83
2021/05/31 07:05:15;;;;;;;0.00;0.00;;;;;;;18.57;57.43;102511.88;5034031;28;20044;-81
2021/05/31 07:07:42;;;;;;;0.20;0.20;;;;;;;18.68;57.23;102514.22;5036865;28;20075;-81
2021/05/31 07:10:10;;;;;;;0.08;0.08;;;;;;;18.74;56.99;102514.97;5035999;28;20392;-81
2021/05/31 07:12:36;;;;;;;0.30;0.30;;;;;;;18.80;57.01;102513.88;5039031;28;20551;-82
2021/05/31 07:15:05;;;;;;;0.45;0.45;;;;;;;18.93;56.67;102514.47;5038553;28;20033;-81
2021/05/31 07:17:35;;;;;;;0.43;0.43;;;;;;;19.04;56.71;102512.38;5037165;28;20100;-81
2021/05/31 07:20:04;;;;;;;0.10;0.10;;;;;;;19.13;56.41;102504.94;5036989;28;20388;-81
2021/05/31 07:22:31;;;;;;;0.08;0.08;;;;;;;19.19;56.37;102510.13;5042555;28;20037;-82
2021/05/31 07:24:57;;;;;;;0.00;0.00;;;;;;;19.32;56.35;102506.16;5039830;28;20053;-80
2021/05/31 07:27:24;;;;;;;0.10;0.10;;;;;;;19.43;56.10;102503.16;5037222;28;20112;-82
2021/05/31 07:29:51;;;;;;;0.10;0.10;;;;;;;19.55;56.19;102504.56;5053070;28;20032;-82
2021/05/31 07:32:17;;;;;;;0.65;0.65;;;;;;;19.72;55.81;102504.91;5040851;28;20021;-82
2021/05/31 07:34:44;;;;;;;0.10;0.10;;;;;;;19.81;55.75;102501.06;5039711;28;20495;-81
2021/05/31 07:37:10;;;;;;;0.30;0.30;;;;;;;19.94;55.10;102495.28;5042875;28;20452;-83
2021/05/31 07:39:37;;;;;;;0.00;0.00;;;;;;;20.07;54.74;102496.63;5041254;28;20219;-80
2021/05/31 07:42:05;;;;;;;0.10;0.10;;;;;;;20.16;54.39;102492.75;5042482;28;20033;-82
2021/05/31 07:44:31;;;;;;;0.00;0.00;;;;;;;20.26;53.95;102493.31;5038539;28;20374;-82
2021/05/31 07:46:57;;;;;;;0.10;0.10;;;;;;;20.32;54.50;102493.09;5038276;28;20112;-83
2021/05/31 07:49:23;;;;;;;0.30;0.30;;;;;;;20.45;54.31;102488.16;5034448;28;20067;-84
2021/05/31 07:51:52;;;;;;;0.88;0.25;;;;;;;20.55;54.37;102488.72;5035001;28;20113;-85
2021/05/31 07:54:20;;;;;;;0.10;0.10;;;;;;;20.66;53.84;102487.41;5033163;28;21000;-84
2021/05/31 07:56:47;;;;;;;0.08;0.08;;;;;;;20.75;53.57;102488.00;5037855;28;20040;-83
2021/05/31 07:59:13;;;;;;;0.10;0.10;;;;;;;20.84;53.23;102495.78;5035703;28;20052;-82
2021/05/31 08:01:39;;;;;;;0.57;0.57;;;;;;;20.91;53.02;102488.34;5036753;28;20117;-84
2021/05/31 08:04:06;;;;;;;0.32;0.32;;;;;;;21.02;52.65;102494.19;5051133;28;20499;-83
2021/05/31 08:06:34;;;;;;;0.08;0.08;;;;;;;21.09;52.49;102487.63;5050905;28;20487;-85
2021/05/31 08:09:01;;;;;;;0.47;0.47;;;;;;;21.09;52.23;102489.47;5039330;28;20064;-84
2021/05/31 08:11:27;;;;;;;0.35;0.35;;;;;;;21.24;52.32;102482.59;5052113;28;20025;-82
2021/05/31 08:13:54;;;;;;;1.95;1.45;;;;;;;21.34;51.99;102484.84;5049845;28;20040;-83
2021/05/31 08:16:20;;;;;;;0.57;0.57;;;;;;;21.41;51.19;102487.31;5039158;28;20057;-83
2021/05/31 08:18:46;;;;;;;0.75;0.75;;;;;;;21.48;51.51;102486.13;5037092;28;20035;-82
2021/05/31 08:21:13;;;;;;;0.20;0.20;;;;;;;21.52;50.72;102479.69;5033042;28;20107;-80
2021/05/31 08:23:39;;;;;;;0.22;0.22;;;;;;;21.54;51.21;102480.50;5036928;28;20095;-80
2021/05/31 08:26:06;;;;;;;0.10;0.10;;;;;;;21.67;49.27;102477.34;5039172;28;20700;-80
2021/05/31 08:28:32;;;;;;;0.10;0.10;;;;;;;21.79;50.13;102480.44;5035984;28;20029;-80
2021/05/31 08:31:00;;;;;;;0.20;0.20;;;;;;;21.87;50.41;102471.09;5036753;28;20032;-80
2021/05/31 08:33:26;;;;;;;0.10;0.10;;;;;;;22.04;50.29;102475.81;5049155;28;20029;-80
2021/05/31 08:35:53;;;;;;;0.10;0.10;;;;;;;22.05;49.94;102475.72;5041054;28;20049;-80
2021/05/31 08:38:19;;;;;;;0.10;0.10;;;;;;;22.23;48.88;102479.47;5035895;28;20029;-80
2021/05/31 08:40:46;;;;;;;1.55;1.00;;;;;;;22.34;49.28;102470.88;5034155;28;20120;-80
2021/05/31 08:43:12;;;;;;;0.10;0.10;;;;;;;22.39;48.56;102474.31;5035785;28;20087;-79
2021/05/31 08:45:39;;;;;;;0.10;0.10;;;;;;;22.44;47.68;102466.00;5037653;28;20516;-80
2021/05/31 08:48:10;;;;;;;0.75;0.75;;;;;;;22.51;46.67;102466.63;5048455;28;20025;-79
2021/05/31 08:50:38;;;;;;;0.10;0.10;;;;;;;22.65;47.67;102464.16;5040637;28;20551;-80
2021/05/31 08:53:04;;;;;;;0.17;0.17;;;;;;;22.77;47.04;102462.72;5038962;28;20111;-80
2021/05/31 08:55:31;;;;;;;0.20;0.20;;;;;;;22.80;47.16;102467.09;5041792;28;20020;-80
2021/05/31 08:57:58;;;;;;;0.10;0.10;;;;;;;22.97;46.06;102471.72;5037405;28;20021;-80
2021/05/31 09:00:29;;;;;;;0.10;0.10;;;;;;;23.01;45.57;102460.69;5042801;28;20033;-80
2021/05/31 09:03:00;;;;;;;0.75;0.75;;;;;;;23.09;46.39;102454.91;5044116;28;20025;-78
2021/05/31 09:05:46;;;;;;;0.10;0.10;;;;;;;23.34;45.58;102456.47;5042292;28;20021;-80
2021/05/31 09:08:16;;;;;;;0.08;0.08;;;;;;;23.38;45.83;102448.16;5043873;28;20030;-80
2021/05/31 09:10:53;;;;;;;0.35;0.35;;;;;;;23.56;45.10;102453.59;5037271;28;20511;-79
2021/05/31 09:13:43;;;;;;;0.20;0.20;;;;;;;23.72;44.24;102451.00;5037177;28;20037;-79
2021/05/31 09:16:13;;;;;;;0.20;0.20;;;;;;;23.73;44.67;102453.63;5037239;28;20028;-81
2021/05/31 09:18:48;;;;;;;0.45;0.45;;;;;;;23.92;44.60;102452.72;5037234;28;20128;-77
2021/05/31 09:24:05;;;;;;;0.35;0.35;;;;;;;24.12;44.18;102445.44;5051837;27;20433;-78
2021/05/31 09:26:52;;;;;;;0.10;0.10;;;;;;;24.09;43.23;102446.47;5049074;28;20526;-77
2021/05/31 09:29:20;;;;;;;0.00;0.00;;;;;;;24.25;42.05;102442.94;5048697;28;20119;-77
2021/05/31 09:31:57;;;;;;;0.10;0.10;;;;;;;24.27;41.83;102430.19;5041919;28;20036;-77
2021/05/31 09:34:25;;;;;;;0.10;0.10;;;;;;;24.37;42.25;102436.88;5044148;28;20040;-79
2021/05/31 09:39:37;;;;;;;0.70;0.70;;;;;;;24.61;42.05;102433.78;5063608;27;21009;-77
2021/05/31 09:42:12;;;;;;;0.90;0.85;;;;;;;24.77;42.14;102429.31;5042102;28;20030;-78
2021/05/31 09:44:40;;;;;;;0.08;0.08;;;;;;;24.78;40.29;102428.34;5047085;28;20425;-78
2021/05/31 09:47:06;;;;;;;0.17;0.17;;;;;;;24.80;41.02;102429.16;5042943;28;20022;-77
2021/05/31 09:49:34;;;;;;;0.10;0.10;;;;;;;24.93;40.47;102417.63;5044431;28;20025;-79
2021/05/31 09:52:04;;;;;;;0.05;0.05;;;;;;;24.90;39.62;102424.09;5038989;27;20098;-78
2021/05/31 09:54:40;;;;;;;0.40;0.30;;;;;;;25.00;39.10;102421.75;5044998;28;20451;-78
2021/05/31 10:00:14;;;;;;;0.63;0.63;;;;;;;25.17;38.88;102413.53;5069605;27;20435;-79
2021/05/31 10:05:34;;;;;;;3.40;0.88;;;;;;;25.38;40.10;102401.56;5085864;27;20141;-78
2021/05/31 10:10:52;;;;;;;0.08;0.08;;;;;;;25.52;38.10;102404.31;5068474;28;20383;-79
2021/05/31 10:13:19;;;;;;;1.92;0.95;;;;;;;25.67;38.02;102402.53;5060130;28;20024;-79
2021/05/31 10:15:46;;;;;;;0.28;0.28;;;;;;;25.62;35.97;102401.94;5045047;28;20385;-79
2021/05/31 10:18:15;;;;;;;0.10;0.10;;;;;;;25.87;38.06;102406.78;5048765;28;20021;-79
2021/05/31 10:20:43;;;;;;;0.43;0.43;;;;;;;25.86;37.19;102401.44;5047911;28;20033;-79
2021/05/31 10:23:11;;;;;;;0.32;0.32;;;;;;;25.84;37.58;102388.84;5054974;28;20024;-80
2021/05/31 10:25:42;;;;;;;0.20;0.20;;;;;;;25.86;37.00;102396.91;5054670;28;20116;-79
2021/05/31 10:28:14;;;;;;;0.10;0.10;;;;;;;25.89;36.07;102393.13;5048307;28;20037;-79
2021/05/31 10:33:25;;;;;;;0.10;0.10;;;;;;;25.98;36.75;102384.41;5068396;28;20406;-80
2021/05/31 10:35:54;;;;;;;0.10;0.10;;;;;;;26.12;35.85;102387.19;5040658;28;20030;-79
2021/05/31 10:38:23;;;;;;;0.38;0.28;;;;;;;26.05;36.12;102380.34;5051652;28;20450;-79
2021/05/31 10:40:52;;;;;;;0.30;0.30;;;;;;;26.25;37.10;102383.72;5030665;28;20061;-79
2021/05/31 10:43:22;;;;;;;0.15;0.15;;;;;;;26.16;37.34;102383.28;5051476;28;20483;-80
2021/05/31 10:46:05;;;;;;;2.20;0.40;;;;;;;26.20;35.91;102383.13;5051087;28;20064;-82
2021/05/31 10:48:43;;;;;;;5.57;1.95;;;;;;;26.22;35.22;102376.63;5037797;28;20033;-77
2021/05/31 10:51:16;;;;;;;0.10;0.10;;;;;;;26.31;37.07;102367.03;5035414;28;20026;-81
2021/05/31 10:53:42;;;;;;;0.35;0.35;;;;;;;26.18;36.04;102372.34;5051705;28;20029;-82
2021/05/31 10:59:20;;;;;;;0.10;0.10;;;;;;;26.46;36.17;102365.19;5087176;27;20401;-82
2021/05/31 11:01:46;;;;;;;0.20;0.20;;;;;;;26.55;36.02;102363.72;5069332;28;20032;-83
2021/05/31 11:04:25;;;;;;;0.32;0.32;;;;;;;26.84;35.68;102356.41;5051154;28;20083;-83
2021/05/31 11:06:54;;;;;;;0.10;0.10;;;;;;;26.80;35.31;102354.88;5049779;28;20033;-80
2021/05/31 11:09:28;;;;;;;0.20;0.20;;;;;;;26.86;35.53;102354.47;5047443;28;20486;-80
2021/05/31 11:11:57;;;;;;;0.08;0.08;;;;;;;26.83;34.43;102354.69;5034281;28;20493;-80
2021/05/31 11:17:23;;;;;;;0.30;0.30;;;;;;;26.78;34.84;102345.94;5065802;28;20402;-85
2021/05/31 11:19:51;;;;;;;0.10;0.10;;;;;;;26.74;34.96;102348.00;5048130;28;20461;-81
2021/05/31 11:22:27;;;;;;;0.03;0.03;;;;;;;26.69;34.85;102341.06;5047962;28;20033;-80
2021/05/31 11:27:36;;;;;;;0.00;0.00;;;;;;;26.39;34.08;102334.78;5132085;27;20416;-83
2021/05/31 11:30:06;;;;;;;0.45;0.45;;;;;;;26.64;34.71;102331.38;5110880;28;20110;-81
2021/05/31 11:32:33;;;;;;;0.10;0.10;;;;;;;26.67;34.94;102335.75;5122892;28;20118;-83
2021/05/31 11:35:01;;;;;;;0.00;0.00;;;;;;;26.96;34.50;102324.81;5112484;27;20300;-81
2021/05/31 11:37:30;;;;;;;0.20;0.20;;;;;;;27.17;34.35;102321.66;5094328;28;20036;-81
2021/05/31 11:39:57;;;;;;;0.10;0.10;;;;;;;27.27;34.30;102320.03;5102596;28;20031;-80
2021/05/31 11:42:24;;;;;;;0.10;0.10;;;;;;;27.31;34.29;102310.69;5127881;27;20132;-81
2021/05/31 11:44:54;;;;;;;0.00;0.00;;;;;;;27.54;33.95;102310.97;5126153;27;20028;-81
2021/05/31 11:47:22;;;;;;;0.10;0.10;;;;;;;27.52;33.31;102308.38;5128224;27;20036;-81
2021/05/31 11:49:48;;;;;;;0.13;0.13;;;;;;;27.42;34.03;102310.84;5125637;27;20063;-80
2021/05/31 11:52:15;;;;;;;0.70;0.60;;;;;;;27.50;34.96;102312.19;5133043;22;20024;-81
2021/05/31 11:54:43;;;;;;;10.68;0.73;;;;;;;27.59;31.96;102306.09;5066145;28;20119;-81
2021/05/31 11:57:13;;;;;;;0.13;0.13;;;;;;;27.81;31.64;102307.31;5069424;28;20020;-81
2021/05/31 11:59:42;;;;;;;0.25;0.25;;;;;;;27.79;32.02;102301.09;5067683;28;20452;-79
2021/05/31 12:02:12;;;;;;;0.10;0.10;;;;;;;27.95;32.31;102298.16;5061310;28;20059;-80
2021/05/31 12:04:41;;;;;;;0.30;0.30;;;;;;;27.93;32.70;102290.97;5054266;28;20026;-81
2021/05/31 12:07:09;;;;;;;0.03;0.03;;;;;;;28.22;32.11;102292.63;5054844;28;20391;-81
2021/05/31 12:09:37;;;;;;;0.47;0.47;;;;;;;28.26;30.75;102288.69;5054838;28;20430;-80
2021/05/31 12:12:04;;;;;;;0.10;0.10;;;;;;;28.34;31.13;102282.69;5059811;28;20032;-80
2021/05/31 12:14:42;;;;;;;0.10;0.10;;;;;;;28.37;30.66;102291.50;5057499;28;20476;-80
2021/05/31 12:17:11;;;;;;;0.43;0.43;;;;;;;28.16;29.96;102284.91;5059734;28;20480;-80
2021/05/31 12:19:37;;;;;;;1.00;0.82;;;;;;;28.39;31.45;102285.94;5065550;28;20059;-81
2021/05/31 12:22:05;;;;;;;0.10;0.10;;;;;;;28.40;32.07;102268.63;5068597;28;20029;-81
2021/05/31 12:24:34;;;;;;;0.25;0.25;;;;;;;28.41;32.19;102279.41;5068132;28;20025;-81